createdAt,value
2022-09-15T00:01:03.008Z,2.03
2022-09-15T00:03:30.131Z,1.88
2022-09-15T00:05:57.291Z,2.10
2022-09-15T00:08:25.154Z,1.70
2022-09-15T00:11:02.209Z,1.60
2022-09-15T00:13:29.335Z,1.40
2022-09-15T00:15:56.393Z,1.95
2022-09-15T00:18:23.632Z,1.55
2022-09-15T00:20:50.654Z,1.63
2022-09-15T00:23:18.102Z,1.60
2022-09-15T00:25:51.311Z,1.83
2022-09-15T00:28:21.059Z,1.88
2022-09-15T00:30:54.599Z,1.60
2022-09-15T00:33:22.977Z,1.60
2022-09-15T00:35:53.319Z,1.55
2022-09-15T00:38:21.158Z,1.38
2022-09-15T00:40:54.545Z,1.50
2022-09-15T00:43:51.506Z,1.70
2022-09-15T00:46:27.366Z,1.40
2022-09-15T00:49:06.268Z,1.88
2022-09-15T00:51:52.260Z,1.45
2022-09-15T00:54:31.648Z,1.25
2022-09-15T00:57:02.967Z,1.73
2022-09-15T00:59:33.190Z,1.55
2022-09-15T01:02:18.374Z,1.60
2022-09-15T01:04:45.482Z,1.45
2022-09-15T01:07:17.011Z,1.83
2022-09-15T01:09:55.929Z,1.45
2022-09-15T01:12:25.745Z,1.27
2022-09-15T01:14:52.678Z,1.70
2022-09-15T01:18:02.949Z,1.10
2022-09-15T01:20:58.945Z,1.20
2022-09-15T01:23:44.871Z,1.27
2022-09-15T01:26:46.982Z,1.23
2022-09-15T01:29:44.446Z,1.08
2022-09-15T01:32:47.149Z,1.25
2022-09-15T01:35:55.468Z,1.40
2022-09-15T01:38:55.706Z,1.23
2022-09-15T01:41:48.223Z,1.20
2022-09-15T01:44:24.161Z,1.20
2022-09-15T01:46:58.332Z,1.38
2022-09-15T01:49:42.327Z,1.25
2022-09-15T01:52:09.316Z,1.35
2022-09-15T01:54:45.718Z,1.40
2022-09-15T01:57:12.853Z,1.20
2022-09-15T01:59:39.781Z,1.23
2022-09-15T02:02:25.661Z,1.27
2022-09-15T02:04:59.772Z,1.10
2022-09-15T02:07:44.921Z,1.40
2022-09-15T02:10:32.642Z,1.55
2022-09-15T02:13:20.845Z,1.30
2022-09-15T02:15:56.282Z,1.38
2022-09-15T02:18:51.110Z,1.50
2022-09-15T02:21:37.191Z,1.20
2022-09-15T02:24:12.815Z,1.60
2022-09-15T02:26:41.132Z,1.42
2022-09-15T02:29:13.871Z,1.48
2022-09-15T02:31:42.590Z,1.20
2022-09-15T02:34:26.035Z,1.55
2022-09-15T02:36:54.819Z,1.50
2022-09-15T02:39:30.745Z,1.55
2022-09-15T02:41:59.607Z,1.42
2022-09-15T02:44:27.007Z,1.55
2022-09-15T02:46:53.999Z,1.52
2022-09-15T02:49:20.961Z,1.17
2022-09-15T02:51:47.948Z,1.90
2022-09-15T02:54:15.062Z,1.42
2022-09-15T02:56:42.037Z,1.33
2022-09-15T02:59:09.262Z,1.45
2022-09-15T03:01:36.252Z,1.20
2022-09-15T03:04:04.733Z,1.20
2022-09-15T03:06:34.728Z,1.50
2022-09-15T03:09:07.003Z,1.40
2022-09-15T03:11:35.458Z,1.35
2022-09-15T03:14:06.861Z,1.35
2022-09-15T03:16:36.414Z,1.52
2022-09-15T03:19:04.356Z,1.40
2022-09-15T03:21:31.456Z,1.50
2022-09-15T03:23:59.106Z,1.58
2022-09-15T03:26:26.153Z,1.33
2022-09-15T03:28:53.578Z,1.38
2022-09-15T03:31:20.759Z,1.30
2022-09-15T03:33:48.561Z,1.60
2022-09-15T03:36:15.750Z,1.70
2022-09-15T03:38:42.663Z,1.15
2022-09-15T03:41:12.515Z,1.48
2022-09-15T03:43:40.199Z,1.47
2022-09-15T03:46:10.374Z,1.40
2022-09-15T03:48:40.385Z,1.20
2022-09-15T03:51:09.071Z,1.48
2022-09-15T03:53:39.164Z,1.33
2022-09-15T03:56:22.608Z,1.60
2022-09-15T03:58:50.230Z,1.70
2022-09-15T04:01:18.950Z,1.70
2022-09-15T04:03:50.888Z,1.42
2022-09-15T04:06:20.913Z,1.83
2022-09-15T04:08:49.766Z,1.50
2022-09-15T04:11:19.034Z,1.73
2022-09-15T04:13:47.178Z,1.52
2022-09-15T04:16:18.954Z,2.25
2022-09-15T04:18:46.698Z,1.70
2022-09-15T04:21:16.917Z,1.67
2022-09-15T04:23:44.772Z,1.50
2022-09-15T04:26:21.178Z,1.58
2022-09-15T04:29:16.451Z,1.45
2022-09-15T04:31:43.587Z,1.83
2022-09-15T04:34:10.675Z,1.88
2022-09-15T04:36:37.868Z,1.75
2022-09-15T04:39:06.577Z,1.70
2022-09-15T04:41:33.879Z,2.03
2022-09-15T04:44:02.037Z,1.60
2022-09-15T04:46:29.060Z,1.77
2022-09-15T04:48:56.730Z,1.85
2022-09-15T04:51:24.856Z,1.77
2022-09-15T04:53:52.200Z,1.80
2022-09-15T04:56:23.640Z,2.20
2022-09-15T04:59:02.418Z,1.88
2022-09-15T05:01:34.970Z,2.40
2022-09-15T05:04:06.412Z,2.42
2022-09-15T05:06:34.935Z,2.30
2022-09-15T05:09:09.045Z,2.22
2022-09-15T05:11:37.240Z,2.15
2022-09-15T05:14:04.350Z,2.33
2022-09-15T05:16:31.891Z,2.08
2022-09-15T05:19:02.913Z,1.95
2022-09-15T05:21:30.259Z,1.90
2022-09-15T05:23:57.563Z,2.17
2022-09-15T05:26:28.157Z,2.08
2022-09-15T05:28:56.847Z,1.65
2022-09-15T05:31:28.557Z,2.00
2022-09-15T05:33:55.637Z,1.85
2022-09-15T05:36:25.239Z,1.75
2022-09-15T05:38:56.600Z,2.10
2022-09-15T05:41:24.763Z,1.38
2022-09-15T05:43:52.241Z,1.52
2022-09-15T05:46:20.472Z,1.88
2022-09-15T05:48:47.598Z,1.60
2022-09-15T05:51:15.044Z,1.63
2022-09-15T05:53:42.396Z,1.98
2022-09-15T05:56:14.495Z,1.52
2022-09-15T05:58:44.031Z,2.08
2022-09-15T06:01:24.271Z,1.75
2022-09-15T06:03:52.456Z,1.98
2022-09-15T06:06:21.678Z,2.47
2022-09-15T06:08:57.989Z,1.83
2022-09-15T06:11:29.139Z,1.77
2022-09-15T06:13:58.871Z,1.88
2022-09-15T06:16:26.611Z,1.77
2022-09-15T06:18:54.522Z,1.67
2022-09-15T06:21:25.421Z,1.00
2022-09-15T06:23:58.971Z,1.00
2022-09-15T06:26:27.540Z,1.08
2022-09-15T06:28:57.726Z,0.98
2022-09-15T06:31:26.926Z,1.20
2022-09-15T06:33:56.276Z,1.60
2022-09-15T06:36:26.361Z,1.85
2022-09-15T06:38:53.896Z,1.77
2022-09-15T06:41:21.540Z,2.35
2022-09-15T06:43:49.307Z,3.67
2022-09-15T06:46:25.254Z,3.97
2022-09-15T06:48:53.474Z,4.85
2022-09-15T06:51:24.141Z,5.18
2022-09-15T06:56:21.709Z,5.07
2022-09-15T07:01:31.318Z,4.63
2022-09-15T07:04:00.852Z,6.23
2022-09-15T07:06:30.250Z,5.93
2022-09-15T07:08:58.424Z,6.38
2022-09-15T07:11:26.072Z,6.03
2022-09-15T07:13:53.189Z,7.22
2022-09-15T07:16:22.449Z,6.93
2022-09-15T07:18:49.807Z,7.30
2022-09-15T07:21:22.359Z,8.05
2022-09-15T07:23:49.929Z,6.88
2022-09-15T07:26:23.442Z,7.05
2022-09-15T07:29:01.628Z,6.15
2022-09-15T07:31:32.202Z,4.97
2022-09-15T07:36:27.339Z,3.45
2022-09-15T07:38:54.262Z,3.45
2022-09-15T07:41:29.177Z,3.20
2022-09-15T07:43:59.020Z,2.60
2022-09-15T07:46:29.564Z,2.50
2022-09-15T07:48:56.568Z,2.20
2022-09-15T07:51:24.767Z,2.60
2022-09-15T07:53:53.149Z,2.50
2022-09-15T07:56:20.580Z,2.53
2022-09-15T07:58:49.415Z,2.75
2022-09-15T08:01:18.150Z,2.38
2022-09-15T08:03:51.768Z,2.45
2022-09-15T08:06:22.589Z,2.28
2022-09-15T08:11:21.912Z,2.65
2022-09-15T08:13:52.305Z,2.60
2022-09-15T08:16:24.052Z,2.65
2022-09-15T08:18:53.818Z,2.50
2022-09-15T08:21:22.322Z,3.00
2022-09-15T08:23:55.986Z,2.70
2022-09-15T08:26:23.997Z,2.38
2022-09-15T08:28:51.223Z,2.80
2022-09-15T08:31:18.778Z,3.05
2022-09-15T08:33:51.676Z,3.20
2022-09-15T08:36:18.903Z,2.97
2022-09-15T08:38:46.829Z,3.15
2022-09-15T08:41:44.577Z,3.35
2022-09-15T08:44:56.914Z,3.40
2022-09-15T08:47:43.039Z,3.10
2022-09-15T08:50:22.878Z,2.97
2022-09-15T08:53:25.334Z,2.97
2022-09-15T08:55:59.863Z,2.70
2022-09-15T08:58:31.606Z,3.25
2022-09-15T09:01:10.942Z,3.05
2022-09-15T09:04:13.732Z,2.67
2022-09-15T09:07:07.825Z,2.85
2022-09-15T09:09:53.617Z,3.65
2022-09-15T09:12:43.086Z,2.97
2022-09-15T09:15:34.923Z,2.75
2022-09-15T09:18:35.667Z,3.03
2022-09-15T09:21:17.592Z,3.20
2022-09-15T09:24:15.851Z,2.45
2022-09-15T09:26:47.374Z,2.60
2022-09-15T09:29:27.979Z,2.47
2022-09-15T09:31:55.689Z,2.47
2022-09-15T09:34:54.311Z,2.60
2022-09-15T09:37:21.547Z,2.45
2022-09-15T09:39:48.887Z,2.58
2022-09-15T09:42:18.499Z,2.88
2022-09-15T09:44:47.076Z,2.63
2022-09-15T09:47:14.360Z,2.58
2022-09-15T09:49:48.386Z,2.58
2022-09-15T09:52:37.739Z,2.22
2022-09-15T09:55:19.906Z,2.20
2022-09-15T09:57:46.862Z,2.30
2022-09-15T10:00:34.331Z,2.45
2022-09-15T10:03:21.189Z,2.42
2022-09-15T10:06:16.944Z,2.80
2022-09-15T10:09:06.220Z,2.45
2022-09-15T10:11:47.719Z,2.03
2022-09-15T10:14:40.161Z,2.30
2022-09-15T10:17:18.536Z,2.03
2022-09-15T10:19:58.757Z,2.17
2022-09-15T10:22:37.472Z,1.85
2022-09-15T10:25:39.414Z,2.08
2022-09-15T10:28:22.975Z,1.98
2022-09-15T10:31:05.458Z,2.50
2022-09-15T10:33:38.645Z,2.47
2022-09-15T10:36:30.109Z,2.65
2022-09-15T10:39:34.591Z,2.38
2022-09-15T10:42:21.040Z,2.17
2022-09-15T10:45:23.352Z,2.80
2022-09-15T10:48:14.835Z,2.67
2022-09-15T10:51:32.133Z,2.67
2022-09-15T10:54:26.542Z,2.90
2022-09-15T10:57:04.710Z,3.00
2022-09-15T10:59:48.898Z,2.80
2022-09-15T11:02:52.194Z,2.45
2022-09-15T11:06:07.088Z,2.42
2022-09-15T11:08:50.871Z,2.10
2022-09-15T11:12:28.396Z,2.00
2022-09-15T11:15:28.167Z,2.15
2022-09-15T11:18:40.272Z,2.63
2022-09-15T11:21:53.926Z,2.58
2022-09-15T11:24:48.289Z,2.78
2022-09-15T11:27:41.141Z,2.58
2022-09-15T11:30:23.220Z,2.50
2022-09-15T11:33:14.617Z,2.63
2022-09-15T11:35:56.663Z,3.03
2022-09-15T11:39:03.230Z,3.00
2022-09-15T11:42:01.047Z,3.10
2022-09-15T11:44:38.236Z,2.78
2022-09-15T11:47:05.168Z,2.20
2022-09-15T11:49:59.348Z,3.00
2022-09-15T11:53:21.470Z,2.72
2022-09-15T11:55:59.888Z,2.78
2022-09-15T11:58:52.190Z,2.97
2022-09-15T12:01:52.205Z,3.42
2022-09-15T12:04:44.375Z,2.87
2022-09-15T12:07:23.537Z,2.75
2022-09-15T12:09:50.711Z,2.58
2022-09-15T12:12:21.019Z,2.45
2022-09-15T12:14:51.490Z,2.03
2022-09-15T12:18:37.731Z,2.17
2022-09-15T12:21:37.326Z,2.30
2022-09-15T12:25:01.526Z,1.83
2022-09-15T12:27:29.624Z,1.38
2022-09-15T12:30:00.135Z,1.30
2022-09-15T12:32:33.218Z,1.30
2022-09-15T12:35:17.559Z,1.40
2022-09-15T12:37:58.538Z,1.13
2022-09-15T12:40:41.745Z,1.13
2022-09-15T12:43:11.614Z,1.20
2022-09-15T12:45:41.538Z,1.08
2022-09-15T12:48:15.783Z,1.13
2022-09-15T12:50:51.866Z,1.00
2022-09-15T12:53:37.410Z,1.00
2022-09-15T12:56:11.524Z,1.55
2022-09-15T12:58:48.207Z,1.38
2022-09-15T13:01:29.920Z,1.20
2022-09-15T13:04:00.568Z,1.40
2022-09-15T13:09:01.507Z,1.65
2022-09-15T13:11:34.824Z,1.77
2022-09-15T13:14:07.662Z,2.65
2022-09-15T13:16:40.398Z,2.10
2022-09-15T13:19:41.903Z,2.13
2022-09-15T13:22:11.813Z,2.33
2022-09-15T13:24:47.503Z,2.60
2022-09-15T13:27:21.133Z,2.20
2022-09-15T13:29:58.669Z,2.28
2022-09-15T13:32:39.706Z,1.92
2022-09-15T13:35:21.004Z,1.95
2022-09-15T13:38:21.809Z,1.92
2022-09-15T13:41:34.720Z,1.88
2022-09-15T13:44:32.113Z,2.10
2022-09-15T13:47:33.960Z,2.13
2022-09-15T13:50:16.848Z,2.15
2022-09-15T13:53:12.706Z,2.50
2022-09-15T13:55:43.869Z,2.15
2022-09-15T14:01:07.439Z,2.17
2022-09-15T14:03:51.628Z,2.78
2022-09-15T14:06:24.855Z,2.58
2022-09-15T14:08:56.632Z,3.03
2022-09-15T14:11:33.468Z,3.08
2022-09-15T14:14:01.347Z,3.38
2022-09-15T14:16:33.899Z,3.53
2022-09-15T14:19:03.938Z,3.75
2022-09-15T14:21:33.678Z,4.25
2022-09-15T14:24:14.799Z,4.17
2022-09-15T14:26:41.810Z,3.47
2022-09-15T14:29:20.599Z,3.83
2022-09-15T14:31:48.985Z,3.95
2022-09-15T14:34:24.625Z,3.35
2022-09-15T14:37:05.492Z,3.60
2022-09-15T14:39:33.610Z,2.65
2022-09-15T14:42:21.104Z,2.75
2022-09-15T14:47:38.508Z,2.47
2022-09-15T14:50:14.329Z,2.35
2022-09-15T14:52:49.824Z,2.42
2022-09-15T14:55:24.898Z,2.35
2022-09-15T14:58:12.619Z,2.53
2022-09-15T15:01:05.467Z,2.33
2022-09-15T15:04:09.823Z,2.20
2022-09-15T15:06:44.539Z,2.67
2022-09-15T15:09:43.940Z,2.50
2022-09-15T15:12:25.971Z,2.17
2022-09-15T15:14:57.897Z,2.38
2022-09-15T15:17:35.941Z,2.38
2022-09-15T15:20:06.167Z,2.20
2022-09-15T15:22:33.751Z,2.88
2022-09-15T15:25:00.863Z,2.70
2022-09-15T15:27:33.772Z,2.40
2022-09-15T15:30:29.442Z,3.10
2022-09-15T15:33:02.084Z,2.30
2022-09-15T15:35:30.681Z,2.65
2022-09-15T15:38:19.438Z,2.78
2022-09-15T15:40:46.886Z,2.55
2022-09-15T15:43:20.968Z,2.53
2022-09-15T15:46:00.573Z,2.58
2022-09-15T15:48:37.946Z,2.30
2022-09-15T15:51:07.073Z,2.40
2022-09-15T15:53:34.362Z,2.75
2022-09-15T15:56:01.436Z,2.80
2022-09-15T15:58:28.361Z,2.58
2022-09-15T16:00:57.020Z,2.20
2022-09-15T16:03:24.932Z,2.30
2022-09-15T16:05:58.267Z,2.20
2022-09-15T16:08:40.038Z,2.30
2022-09-15T16:11:11.857Z,2.10
2022-09-15T16:13:39.570Z,2.05
2022-09-15T16:16:23.598Z,2.50
2022-09-15T16:18:51.056Z,2.33
2022-09-15T16:21:26.026Z,2.15
2022-09-15T16:23:53.006Z,1.95
2022-09-15T16:26:24.395Z,2.17
2022-09-15T16:28:51.344Z,2.17
2022-09-15T16:31:18.295Z,2.38
2022-09-15T16:33:45.266Z,2.13
2022-09-15T16:36:15.823Z,2.55
2022-09-15T16:38:44.913Z,2.03
2022-09-15T16:41:22.904Z,2.13
2022-09-15T16:43:50.309Z,2.47
2022-09-15T16:46:17.547Z,2.50
2022-09-15T16:48:47.083Z,2.22
2022-09-15T16:51:26.741Z,1.83
2022-09-15T16:53:56.763Z,1.63
2022-09-15T16:56:23.724Z,1.70
2022-09-15T16:58:57.323Z,1.75
2022-09-15T17:01:26.824Z,1.65
2022-09-15T17:03:53.830Z,1.98
2022-09-15T17:06:21.953Z,2.15
2022-09-15T17:08:48.965Z,1.90
2022-09-15T17:11:19.625Z,1.92
2022-09-15T17:13:47.464Z,2.13
2022-09-15T17:16:19.631Z,1.92
2022-09-15T17:18:47.352Z,1.90
2022-09-15T17:21:16.825Z,1.50
2022-09-15T17:23:47.862Z,1.75
2022-09-15T17:26:28.786Z,2.08
2022-09-15T17:28:58.825Z,1.73
2022-09-15T17:31:26.174Z,1.83
2022-09-15T17:33:53.216Z,1.95
2022-09-15T17:36:20.300Z,1.67
2022-09-15T17:38:48.765Z,2.05
2022-09-15T17:41:21.457Z,1.70
2022-09-15T17:43:48.491Z,1.52
2022-09-15T17:46:16.581Z,1.58
2022-09-15T17:48:43.698Z,1.80
2022-09-15T17:51:19.202Z,1.90
2022-09-15T17:53:47.686Z,1.67
2022-09-15T17:56:14.734Z,1.67
2022-09-15T17:58:42.539Z,2.00
2022-09-15T18:01:13.754Z,1.75
2022-09-15T18:03:44.457Z,2.35
2022-09-15T18:08:38.379Z,1.65
2022-09-15T18:11:06.889Z,1.67
2022-09-15T18:13:34.355Z,1.88
2022-09-15T18:16:07.352Z,1.98
2022-09-15T18:18:34.491Z,2.03
2022-09-15T18:21:06.322Z,1.98
2022-09-15T18:23:33.239Z,1.85
2022-09-15T18:26:00.183Z,2.03
2022-09-15T18:28:27.122Z,2.05
2022-09-15T18:30:55.328Z,2.05
2022-09-15T18:33:25.362Z,2.40
2022-09-15T18:35:59.764Z,2.22
2022-09-15T18:38:27.045Z,1.85
2022-09-15T18:40:56.357Z,2.22
2022-09-15T18:43:26.231Z,1.63
2022-09-15T18:46:01.407Z,1.70
2022-09-15T18:48:29.216Z,1.85
2022-09-15T18:50:56.716Z,1.90
2022-09-15T18:53:24.627Z,1.85
2022-09-15T18:55:51.684Z,1.80
2022-09-15T18:58:19.391Z,1.92
2022-09-15T19:00:46.562Z,1.90
2022-09-15T19:03:14.208Z,1.73
2022-09-15T19:05:42.008Z,2.38
2022-09-15T19:08:09.169Z,2.47
2022-09-15T19:10:39.330Z,1.98
2022-09-15T19:13:06.437Z,2.40
2022-09-15T19:15:34.524Z,2.15
2022-09-15T19:18:01.947Z,2.20
2022-09-15T19:20:29.233Z,2.20
2022-09-15T19:22:57.931Z,2.05
2022-09-15T19:25:25.139Z,2.15
2022-09-15T19:27:52.165Z,1.90
2022-09-15T19:30:19.126Z,1.77
2022-09-15T19:32:46.150Z,2.45
2022-09-15T19:35:13.419Z,2.40
2022-09-15T19:37:41.989Z,2.50
2022-09-15T19:40:13.913Z,2.70
2022-09-15T19:42:42.638Z,2.58
2022-09-15T19:45:11.375Z,2.65
2022-09-15T19:47:39.365Z,2.50
2022-09-15T19:50:08.182Z,2.90
2022-09-15T19:52:35.543Z,2.40
2022-09-15T19:55:03.121Z,2.70
2022-09-15T19:57:30.323Z,2.50
2022-09-15T19:59:57.293Z,2.38
2022-09-15T20:02:24.249Z,2.90
2022-09-15T20:04:51.211Z,2.63
2022-09-15T20:07:18.365Z,2.90
2022-09-15T20:09:45.347Z,2.67
2022-09-15T20:12:12.331Z,2.45
2022-09-15T20:14:40.405Z,2.88
2022-09-15T20:17:07.425Z,2.70
2022-09-15T20:19:34.673Z,2.97
2022-09-15T20:22:04.851Z,2.60
2022-09-15T20:24:32.025Z,2.83
2022-09-15T20:26:59.252Z,2.97
2022-09-15T20:29:26.230Z,3.13
2022-09-15T20:31:54.146Z,2.85
2022-09-15T20:34:21.141Z,2.67
2022-09-15T20:36:48.078Z,3.00
2022-09-15T20:39:18.701Z,2.88
2022-09-15T20:41:45.804Z,2.70
2022-09-15T20:44:13.491Z,2.55
2022-09-15T20:46:40.779Z,2.35
2022-09-15T20:49:07.889Z,2.67
2022-09-15T20:51:35.125Z,2.45
2022-09-15T20:54:04.084Z,2.70
2022-09-15T20:56:34.816Z,2.85
2022-09-15T21:01:36.607Z,2.72
2022-09-15T21:04:05.409Z,2.25
2022-09-15T21:06:32.799Z,2.90
2022-09-15T21:09:00.324Z,2.58
2022-09-15T21:11:30.063Z,2.67
2022-09-15T21:13:57.760Z,3.10
2022-09-15T21:16:27.765Z,2.85
2022-09-15T21:18:57.665Z,2.85
2022-09-15T21:21:27.924Z,2.63
2022-09-15T21:24:07.188Z,2.55
2022-09-15T21:26:59.684Z,2.83
2022-09-15T21:29:28.408Z,3.00
2022-09-15T21:31:56.283Z,3.15
2022-09-15T21:34:23.884Z,3.40
2022-09-15T21:36:51.760Z,2.95
2022-09-15T21:39:18.896Z,3.15
2022-09-15T21:41:45.951Z,2.75
2022-09-15T21:44:12.887Z,3.35
2022-09-15T21:46:39.831Z,3.40
2022-09-15T21:49:06.913Z,2.80
2022-09-15T21:51:33.889Z,3.65
2022-09-15T21:54:00.836Z,3.67
2022-09-15T21:56:29.559Z,3.22
2022-09-15T21:58:56.822Z,3.20
2022-09-15T22:01:30.424Z,3.00
2022-09-15T22:04:01.649Z,2.90
2022-09-15T22:06:33.106Z,2.80
2022-09-15T22:09:01.914Z,2.97
2022-09-15T22:11:29.173Z,3.15
2022-09-15T22:13:56.145Z,2.90
2022-09-15T22:16:25.130Z,2.97
2022-09-15T22:18:52.944Z,2.67
2022-09-15T22:21:23.616Z,2.67
2022-09-15T22:23:53.977Z,3.13
2022-09-15T22:26:27.903Z,3.15
2022-09-15T22:28:55.665Z,2.85
2022-09-15T22:31:24.562Z,3.00
2022-09-15T22:33:52.753Z,3.08
2022-09-15T22:36:28.585Z,2.88
2022-09-15T22:39:02.726Z,3.03
2022-09-15T22:41:31.016Z,2.88
2022-09-15T22:43:58.002Z,2.80
2022-09-15T22:46:24.979Z,3.05
2022-09-15T22:48:51.936Z,3.13
2022-09-15T22:51:19.189Z,2.83
2022-09-15T22:53:46.403Z,3.10
2022-09-15T22:56:25.939Z,2.63
2022-09-15T22:58:53.259Z,2.70
2022-09-15T23:01:23.847Z,2.20
2022-09-15T23:06:20.130Z,2.17
2022-09-15T23:08:53.006Z,2.25
2022-09-15T23:11:20.739Z,2.00
2022-09-15T23:13:48.348Z,1.90
2022-09-15T23:16:15.719Z,2.00
2022-09-15T23:18:42.912Z,1.88
2022-09-15T23:21:12.123Z,1.77
2022-09-15T23:23:41.513Z,2.00
2022-09-15T23:26:11.043Z,1.88
2022-09-15T23:28:41.610Z,1.60
2022-09-15T23:31:11.873Z,1.95
2022-09-15T23:33:39.299Z,1.70
2022-09-15T23:36:10.416Z,1.38
2022-09-15T23:38:44.336Z,1.67
2022-09-15T23:41:12.638Z,1.55
2022-09-15T23:43:39.626Z,1.25
2022-09-15T23:46:06.970Z,1.48
2022-09-15T23:48:34.087Z,1.55
2022-09-15T23:51:01.811Z,1.40
2022-09-15T23:53:29.598Z,1.83
2022-09-15T23:55:56.787Z,1.55
2022-09-15T23:58:24.055Z,1.80
